Time;durP1;ratioP1;P1;durP2;ratioP2;P2;SDS_P1;SDS_P2;PMS_P1;PMS_P2;Temp;Humidity;BMP_temperature;BMP_pressure;BME280_temperature;BME280_humidity;BME280_pressure;Samples;Min_cycle;Max_cycle;Signal;HPM_P1;HPM_P2
2022/10/28 00:01:35;;;;;;;6.03;2.50;;;;;;;24.87;44.71;100882.59;5014666;28;20026;-58
2022/10/28 00:04:04;;;;;;;6.55;2.50;;;;;;;24.92;44.42;100874.75;4997308;28;20475;-58
2022/10/28 00:06:35;;;;;;;7.78;2.40;;;;;;;24.86;44.44;100875.59;4996741;28;20407;-53
2022/10/28 00:09:04;;;;;;;7.57;2.60;;;;;;;24.91;44.53;100890.47;5015050;28;20080;-55
2022/10/28 00:11:35;;;;;;;9.38;2.47;;;;;;;24.87;44.55;100889.56;4997520;28;20026;-58
2022/10/28 00:14:05;;;;;;;10.20;2.70;;;;;;;24.85;44.45;100892.19;5015159;28;20069;-57
2022/10/28 00:16:36;;;;;;;6.75;2.35;;;;;;;24.89;44.52;100887.84;5014866;28;20032;-57
2022/10/28 00:19:06;;;;;;;8.30;2.42;;;;;;;24.84;44.63;100879.03;5014452;28;20026;-58
2022/10/28 00:21:36;;;;;;;7.78;2.65;;;;;;;24.92;44.49;100881.72;5014367;28;20026;-58
2022/10/28 00:24:05;;;;;;;7.53;2.10;;;;;;;24.77;44.77;100869.38;5014643;28;20030;-58
2022/10/28 00:26:35;;;;;;;7.63;1.83;;;;;;;24.86;44.70;100864.19;4997519;28;20049;-58
2022/10/28 00:29:09;;;;;;;6.68;2.00;;;;;;;24.81;44.94;100866.78;5013733;28;20022;-58
2022/10/28 00:31:38;;;;;;;6.10;2.88;;;;;;;24.87;44.62;100856.34;5013901;28;20029;-57
2022/10/28 00:34:10;;;;;;;9.57;2.97;;;;;;;24.87;44.61;100856.34;5014342;28;20533;-58
2022/10/28 00:36:41;;;;;;;8.50;2.50;;;;;;;24.91;44.42;100856.34;4997253;28;20403;-58
2022/10/28 00:39:18;;;;;;;8.40;3.00;;;;;;;24.85;44.61;100849.31;5014145;28;20103;-54
2022/10/28 00:41:49;;;;;;;8.35;2.53;;;;;;;24.80;44.64;100867.66;5014061;28;20340;-57
2022/10/28 00:44:41;;;;;;;9.98;2.55;;;;;;;24.67;44.65;100852.66;4996470;28;20026;-58
2022/10/28 00:47:24;;;;;;;10.85;3.75;;;;;;;24.73;45.13;100865.84;4989845;28;20042;-58
2022/10/28 00:49:57;;;;;;;10.05;2.90;;;;;;;24.71;44.79;100864.97;5014161;28;20490;-58
2022/10/28 00:52:28;;;;;;;8.35;2.50;;;;;;;24.76;45.16;100889.47;5014502;28;20037;-57
2022/10/28 00:54:58;;;;;;;9.25;3.42;;;;;;;24.79;44.95;100886.00;5013969;28;20014;-56
2022/10/28 00:57:30;;;;;;;8.75;2.85;;;;;;;24.68;45.15;100872.75;5014120;28;20549;-51
2022/10/28 01:00:01;;;;;;;9.55;2.85;;;;;;;24.66;45.19;100888.47;5014425;28;20072;-56
2022/10/28 01:02:30;;;;;;;9.38;2.88;;;;;;;24.75;45.10;100881.59;4996393;28;20026;-57
2022/10/28 01:04:58;;;;;;;9.95;2.78;;;;;;;24.62;44.99;100886.72;4996053;28;20030;-57
2022/10/28 01:07:26;;;;;;;7.22;2.55;;;;;;;24.71;45.03;100897.31;5013764;28;20113;-57
2022/10/28 01:10:15;;;;;;;8.07;2.80;;;;;;;24.77;45.18;100887.75;5013126;28;20037;-56
2022/10/28 01:13:03;;;;;;;9.40;2.75;;;;;;;24.79;44.74;100892.13;5013545;28;20475;-57
2022/10/28 01:15:54;;;;;;;10.15;2.97;;;;;;;24.71;44.94;100902.56;4996424;28;20482;-56
2022/10/28 01:18:41;;;;;;;8.65;3.45;;;;;;;24.67;45.49;100903.34;4995797;28;20073;-56
2022/10/28 01:21:47;;;;;;;8.82;2.58;;;;;;;24.75;45.03;100907.84;4995653;28;20033;-56
2022/10/28 01:24:39;;;;;;;12.68;2.95;;;;;;;24.70;45.19;100913.91;5006225;28;20372;-57
2022/10/28 01:27:07;;;;;;;11.02;2.95;;;;;;;24.67;45.13;100912.97;5006388;28;20038;-57
2022/10/28 01:29:52;;;;;;;6.95;2.28;;;;;;;24.67;45.23;100916.47;5013343;28;20517;-57
2022/10/28 01:32:45;;;;;;;8.68;2.85;;;;;;;24.69;45.19;100927.84;4979506;28;20026;-57
2022/10/28 01:35:44;;;;;;;9.75;2.47;;;;;;;24.62;45.10;100928.69;4995639;28;20490;-53
2022/10/28 01:38:26;;;;;;;7.97;2.35;;;;;;;24.56;45.58;100933.84;5012702;28;20033;-53
2022/10/28 01:41:07;;;;;;;8.57;2.65;;;;;;;24.57;45.44;100940.84;5012767;28;20037;-57
2022/10/28 01:43:55;;;;;;;7.63;2.42;;;;;;;24.56;45.38;100955.72;4996022;28;20026;-56
2022/10/28 01:46:31;;;;;;;7.72;2.53;;;;;;;24.58;45.58;100951.34;4995510;28;20033;-54
2022/10/28 01:49:05;;;;;;;6.90;2.03;;;;;;;24.60;45.19;100958.34;5013051;28;20034;-57
2022/10/28 01:51:39;;;;;;;8.43;2.67;;;;;;;24.58;45.47;100955.72;4996005;28;20146;-55
2022/10/28 01:54:09;;;;;;;7.97;2.30;;;;;;;24.59;45.36;100960.13;5012982;28;20034;-58
2022/10/28 01:56:40;;;;;;;11.30;2.67;;;;;;;24.62;45.05;100967.13;5013193;28;20471;-57
2022/10/28 01:59:12;;;;;;;7.47;2.20;;;;;;;24.61;45.46;100953.16;5012949;28;20132;-55
2022/10/28 02:01:41;;;;;;;9.57;2.58;;;;;;;24.58;45.25;100947.88;4995588;28;20037;-58
2022/10/28 02:04:10;;;;;;;13.32;2.53;;;;;;;24.57;45.79;100961.84;5012602;28;20482;-57
2022/10/28 02:06:40;;;;;;;9.25;2.78;;;;;;;24.52;45.65;100951.31;5012674;28;20058;-57
2022/10/28 02:09:30;;;;;;;10.52;2.70;;;;;;;24.60;45.55;100940.91;5012690;28;20053;-57
2022/10/28 02:12:10;;;;;;;8.68;2.78;;;;;;;24.55;45.38;100955.69;4986136;28;20038;-58
2022/10/28 02:14:51;;;;;;;9.07;2.53;;;;;;;24.69;45.32;100967.19;4995591;28;20029;-56
2022/10/28 02:17:38;;;;;;;9.07;2.60;;;;;;;24.66;45.55;100979.41;4995758;28;20030;-56
2022/10/28 02:20:27;;;;;;;10.15;2.30;;;;;;;24.62;45.39;100970.66;4996976;28;20152;-57
2022/10/28 02:23:14;;;;;;;6.10;2.58;;;;;;;24.60;45.55;100969.75;4991159;28;20053;-58
2022/10/28 02:25:46;;;;;;;5.72;1.88;;;;;;;24.61;45.50;100986.34;4999329;28;20025;-56
2022/10/28 02:28:19;;;;;;;9.45;2.60;;;;;;;24.60;45.43;100979.34;4999551;28;20030;-57
2022/10/28 02:31:01;;;;;;;8.13;2.15;;;;;;;24.58;45.63;100988.06;5016629;28;20030;-56
2022/10/28 02:33:35;;;;;;;8.38;2.65;;;;;;;24.63;45.60;100982.91;5017104;28;20030;-58
2022/10/28 02:36:07;;;;;;;8.32;2.17;;;;;;;24.64;45.45;100971.53;4999275;28;20050;-58
2022/10/28 02:38:49;;;;;;;8.27;2.10;;;;;;;24.69;45.55;100963.72;4999481;28;20113;-58
2022/10/28 02:41:23;;;;;;;6.93;2.35;;;;;;;24.69;45.36;100961.97;4999346;28;20022;-58
2022/10/28 02:43:54;;;;;;;7.10;2.30;;;;;;;24.64;45.32;100954.91;5016114;28;20486;-58
2022/10/28 02:46:24;;;;;;;8.88;2.55;;;;;;;24.61;45.51;100963.63;4998914;28;20037;-58
2022/10/28 02:48:55;;;;;;;6.10;1.98;;;;;;;24.59;45.53;100970.59;5016449;28;20025;-57
2022/10/28 02:51:28;;;;;;;6.70;2.30;;;;;;;24.62;45.50;100980.25;4999250;28;20025;-56
2022/10/28 02:54:04;;;;;;;8.23;2.25;;;;;;;24.64;45.72;100979.41;4998947;28;20026;-57
2022/10/28 02:56:37;;;;;;;6.85;2.20;;;;;;;24.60;45.89;100989.84;5016501;28;20498;-57
2022/10/28 02:59:10;;;;;;;6.45;2.40;;;;;;;24.56;45.53;100983.69;4998507;28;20451;-56
2022/10/28 03:01:39;;;;;;;8.40;2.22;;;;;;;24.58;45.46;100988.06;5015974;28;20071;-51
2022/10/28 03:04:07;;;;;;;9.63;2.67;;;;;;;24.64;45.59;100982.03;4998565;28;20084;-56
2022/10/28 03:06:36;;;;;;;4.82;1.75;;;;;;;24.64;45.73;100989.91;5015795;28;20053;-56
2022/10/28 03:09:05;;;;;;;10.73;2.88;;;;;;;24.59;45.52;101012.56;5015879;28;20029;-57
2022/10/28 03:11:33;;;;;;;6.85;2.20;;;;;;;24.58;45.56;101016.91;5015943;28;20343;-57
2022/10/28 03:14:02;;;;;;;9.27;2.05;;;;;;;24.52;45.85;100985.41;5015586;28;20025;-56
2022/10/28 03:16:30;;;;;;;6.03;1.75;;;;;;;24.59;45.35;100988.97;4998404;28;20030;-54
2022/10/28 03:18:59;;;;;;;7.20;1.90;;;;;;;24.61;45.66;100991.59;5015889;28;20022;-56
2022/10/28 03:24:50;;;;;;;9.23;2.10;;;;;;;24.53;45.62;100999.38;5013516;28;20052;-56
2022/10/28 03:27:19;;;;;;;8.43;2.20;;;;;;;24.54;45.63;101009.91;5015283;28;20025;-53
2022/10/28 03:29:47;;;;;;;6.18;1.98;;;;;;;24.55;45.71;101006.41;5015453;28;20033;-55
2022/10/28 03:32:16;;;;;;;6.20;2.13;;;;;;;24.60;45.50;101016.06;5014854;28;20032;-57
2022/10/28 03:34:45;;;;;;;6.47;2.35;;;;;;;24.57;45.83;101017.78;5015446;28;20105;-55
2022/10/28 03:37:13;;;;;;;5.13;1.95;;;;;;;24.54;45.46;101009.00;5015568;28;20081;-57
2022/10/28 03:39:42;;;;;;;7.38;1.88;;;;;;;24.53;45.51;101002.00;5015418;28;20025;-56
2022/10/28 03:42:10;;;;;;;8.98;2.00;;;;;;;24.55;45.69;101016.91;5015339;28;20026;-57
2022/10/28 03:44:39;;;;;;;7.90;2.33;;;;;;;24.55;45.74;101019.53;5015229;28;20548;-56
2022/10/28 03:47:08;;;;;;;6.13;2.20;;;;;;;24.56;45.55;101023.03;5014885;28;20057;-57
2022/10/28 03:49:36;;;;;;;5.78;2.15;;;;;;;24.54;45.69;101023.03;5015473;28;20018;-57
2022/10/28 03:52:05;;;;;;;5.03;1.85;;;;;;;24.53;45.57;101029.13;5014619;28;20034;-57
2022/10/28 03:54:34;;;;;;;9.07;2.25;;;;;;;24.63;45.40;101035.34;5015275;28;20459;-58
2022/10/28 03:57:02;;;;;;;7.88;2.47;;;;;;;24.60;45.36;101024.81;5014837;28;20029;-57
2022/10/28 03:59:31;;;;;;;7.35;2.00;;;;;;;24.57;45.58;101028.28;4997447;28;20032;-54
2022/10/28 04:01:59;;;;;;;6.15;2.17;;;;;;;24.59;45.69;101033.56;5014831;28;20533;-57
2022/10/28 04:04:28;;;;;;;6.90;2.05;;;;;;;24.49;45.39;101001.09;5014499;28;20061;-57
2022/10/28 04:06:56;;;;;;;9.60;2.08;;;;;;;24.57;45.80;101007.28;5014414;28;20046;-56
2022/10/28 04:09:26;;;;;;;7.97;2.50;;;;;;;24.53;45.53;101012.50;5015609;28;20486;-58
2022/10/28 04:11:54;;;;;;;10.43;2.28;;;;;;;24.61;45.53;101023.97;5014678;28;20418;-58
2022/10/28 04:14:23;;;;;;;9.55;2.70;;;;;;;24.64;45.38;101029.25;5014927;28;20026;-58
2022/10/28 04:16:51;;;;;;;10.68;2.70;;;;;;;24.60;45.41;101014.34;5014650;28;20033;-57
2022/10/28 04:19:20;;;;;;;8.02;2.47;;;;;;;24.61;45.74;101037.06;5014458;28;20030;-57
2022/10/28 04:21:48;;;;;;;8.45;2.58;;;;;;;24.70;45.67;101042.44;5014862;28;20479;-57
2022/10/28 04:24:17;;;;;;;13.73;3.08;;;;;;;24.57;45.88;101033.50;5014747;28;20026;-57
2022/10/28 04:26:45;;;;;;;8.52;2.60;;;;;;;24.60;45.58;101035.31;4997018;28;20080;-58
2022/10/28 04:29:14;;;;;;;11.50;3.15;;;;;;;24.65;45.61;101037.97;5014104;28;20119;-55
2022/10/28 04:31:42;;;;;;;8.45;2.63;;;;;;;24.53;45.69;101055.34;5014046;28;20030;-57
2022/10/28 04:34:11;;;;;;;6.43;2.20;;;;;;;24.52;45.54;101053.59;5014528;28;20105;-55
2022/10/28 04:36:39;;;;;;;8.43;2.30;;;;;;;24.58;45.52;101047.53;5013960;28;20032;-57
2022/10/28 04:39:09;;;;;;;8.60;2.75;;;;;;;24.59;45.64;101059.78;5014250;28;20030;-58
2022/10/28 04:41:38;;;;;;;7.72;1.98;;;;;;;24.43;45.45;101041.25;4997014;28;20394;-58
2022/10/28 04:44:06;;;;;;;7.07;2.30;;;;;;;24.58;45.68;101071.13;5013814;28;20032;-55
2022/10/28 04:46:34;;;;;;;9.18;2.05;;;;;;;24.58;45.41;101079.00;5014097;28;20026;-57
2022/10/28 04:49:03;;;;;;;9.10;2.58;;;;;;;24.56;45.43;101091.22;5013851;28;20399;-57
2022/10/28 04:51:32;;;;;;;6.50;1.90;;;;;;;24.60;45.41;101087.78;5013863;28;20026;-58
2022/10/28 04:53:59;;;;;;;5.65;2.15;;;;;;;24.55;45.34;101076.34;5014300;28;20029;-58
2022/10/28 04:56:29;;;;;;;7.57;2.13;;;;;;;24.61;45.53;101091.25;5014065;28;20065;-58
2022/10/28 04:58:59;;;;;;;5.90;1.67;;;;;;;24.61;45.19;101107.91;5013575;28;20463;-56
2022/10/28 05:01:26;;;;;;;6.53;1.83;;;;;;;24.62;45.30;101107.03;5014098;28;20483;-57
2022/10/28 05:03:55;;;;;;;6.55;2.00;;;;;;;24.68;45.12;101107.09;5013956;28;20386;-57
2022/10/28 05:06:23;;;;;;;5.82;2.28;;;;;;;24.53;45.33;101092.06;5013133;28;20116;-56
2022/10/28 05:08:52;;;;;;;4.88;1.60;;;;;;;24.66;45.21;101110.56;5013625;28;20109;-57
2022/10/28 05:11:21;;;;;;;5.28;2.13;;;;;;;24.58;45.30;101113.09;5013410;28;20076;-56
2022/10/28 05:13:51;;;;;;;3.17;1.35;;;;;;;24.54;45.32;101104.31;5013602;28;20470;-56
2022/10/28 05:16:20;;;;;;;8.60;1.73;;;;;;;24.60;45.59;101120.97;5013706;28;20034;-56
2022/10/28 05:18:49;;;;;;;7.80;1.92;;;;;;;24.59;45.45;101135.84;5013545;28;20022;-54
2022/10/28 05:21:17;;;;;;;6.93;1.88;;;;;;;24.59;45.16;101127.97;5013804;28;20026;-53
2022/10/28 05:23:46;;;;;;;6.30;2.08;;;;;;;24.59;45.22;101141.09;4995662;28;20034;-57
2022/10/28 05:26:15;;;;;;;7.45;1.73;;;;;;;24.53;45.60;101130.50;5013439;28;20108;-58
2022/10/28 05:28:43;;;;;;;5.07;1.20;;;;;;;24.63;45.09;101142.00;5013401;28;20140;-56
2022/10/28 05:31:12;;;;;;;6.05;1.73;;;;;;;24.66;45.17;101147.28;4995913;28;20084;-56
2022/10/28 05:33:40;;;;;;;4.95;1.55;;;;;;;24.56;45.38;101138.41;5013340;28;20457;-56
2022/10/28 05:36:09;;;;;;;5.43;2.00;;;;;;;24.66;45.03;101145.53;5013145;28;20116;-57
2022/10/28 05:38:38;;;;;;;5.80;1.58;;;;;;;24.63;45.18;101148.16;5012123;28;20034;-57
2022/10/28 05:41:07;;;;;;;7.18;1.95;;;;;;;24.63;45.09;101155.13;5013183;28;20053;-59
2022/10/28 05:43:35;;;;;;;6.57;1.83;;;;;;;24.59;45.52;101162.06;5012969;28;20394;-59
2022/10/28 05:46:04;;;;;;;6.97;1.88;;;;;;;24.56;45.46;101172.53;5013210;28;20022;-56
2022/10/28 05:48:33;;;;;;;7.30;1.80;;;;;;;24.64;45.25;101178.78;5012977;28;20026;-59
2022/10/28 05:51:01;;;;;;;3.40;1.33;;;;;;;24.66;45.17;101187.50;5013043;28;20120;-58
2022/10/28 05:53:30;;;;;;;7.15;1.77;;;;;;;24.62;45.29;101190.06;5013103;28;20037;-58
2022/10/28 05:55:58;;;;;;;5.65;1.85;;;;;;;24.66;45.16;101195.38;5012768;28;20029;-57
2022/10/28 05:58:27;;;;;;;6.75;1.73;;;;;;;24.69;44.72;101194.56;5012852;28;20076;-57
2022/10/28 06:00:55;;;;;;;5.65;1.50;;;;;;;24.69;44.69;101191.94;5013202;28;20048;-58
2022/10/28 06:03:24;;;;;;;7.28;1.60;;;;;;;24.70;44.87;101191.13;5012980;28;20058;-59
2022/10/28 06:05:53;;;;;;;5.50;1.52;;;;;;;24.70;44.75;101205.09;4995325;28;20487;-56
2022/10/28 06:08:22;;;;;;;6.03;1.85;;;;;;;24.71;44.81;101201.63;5013279;28;20502;-56
2022/10/28 06:10:53;;;;;;;5.15;1.70;;;;;;;24.63;45.33;101203.22;5012232;28;20024;-58
2022/10/28 06:13:21;;;;;;;6.45;1.75;;;;;;;24.64;45.06;101214.59;5013413;28;20069;-58
2022/10/28 06:15:52;;;;;;;7.10;1.63;;;;;;;24.63;44.85;101212.81;4995424;28;20053;-58
2022/10/28 06:18:23;;;;;;;5.45;1.40;;;;;;;24.57;44.96;101198.75;5012697;28;20075;-59
2022/10/28 06:20:54;;;;;;;5.35;1.63;;;;;;;24.58;45.30;101211.00;5012674;28;20026;-57
2022/10/28 06:23:24;;;;;;;4.63;1.48;;;;;;;24.65;45.19;101222.50;4995268;28;20026;-58
2022/10/28 06:25:56;;;;;;;5.97;1.42;;;;;;;24.64;45.01;101227.72;5012845;28;20065;-52
2022/10/28 06:28:24;;;;;;;6.13;1.50;;;;;;;24.60;45.05;101225.88;4995190;28;20061;-55
2022/10/28 06:30:53;;;;;;;5.00;1.92;;;;;;;24.56;45.01;101224.97;5013195;28;20030;-56
2022/10/28 06:33:22;;;;;;;5.93;1.33;;;;;;;24.55;45.52;101234.59;5013067;28;20457;-57
2022/10/28 06:35:50;;;;;;;6.70;2.38;;;;;;;24.57;45.35;101243.34;5012393;28;20092;-59
2022/10/28 06:38:19;;;;;;;6.72;2.05;;;;;;;24.59;45.27;101259.13;5012681;28;20033;-54
2022/10/28 06:40:47;;;;;;;5.40;1.60;;;;;;;24.58;45.35;101260.84;5012411;28;20502;-59
2022/10/28 06:43:16;;;;;;;4.30;1.50;;;;;;;24.50;45.09;101243.22;5012803;28;20040;-57
2022/10/28 06:45:47;;;;;;;5.45;1.67;;;;;;;24.55;45.31;101265.16;5012355;28;20387;-57
2022/10/28 06:48:15;;;;;;;5.30;1.65;;;;;;;24.53;45.59;101270.41;5012801;28;20029;-57
2022/10/28 06:50:44;;;;;;;7.03;1.80;;;;;;;24.52;45.34;101275.59;5012265;28;20115;-55
2022/10/28 06:53:12;;;;;;;5.80;1.70;;;;;;;24.47;45.62;101274.69;4995567;28;20026;-59
2022/10/28 06:55:41;;;;;;;5.35;1.33;;;;;;;24.49;45.44;101278.22;5012721;28;20439;-59
2022/10/28 06:58:09;;;;;;;3.33;1.30;;;;;;;24.48;45.40;101290.44;5013269;28;20033;-58
2022/10/28 07:00:37;;;;;;;5.70;1.58;;;;;;;24.52;45.33;101279.13;4995732;28;20076;-56
2022/10/28 07:03:06;;;;;;;4.65;1.42;;;;;;;24.46;45.32;101273.78;5012443;28;20068;-56
2022/10/28 07:05:35;;;;;;;3.75;1.65;;;;;;;24.50;45.25;101279.94;5012680;28;20403;-55
2022/10/28 07:08:03;;;;;;;6.20;1.50;;;;;;;24.48;45.24;101297.41;4997379;28;20030;-56
2022/10/28 07:10:32;;;;;;;5.82;1.85;;;;;;;24.48;45.41;101294.81;4998726;28;20029;-57
2022/10/28 07:13:01;;;;;;;5.25;1.63;;;;;;;24.46;45.46;101309.63;5016141;28;20116;-58
2022/10/28 07:15:29;;;;;;;5.57;1.73;;;;;;;24.51;45.61;101318.44;5015556;28;20479;-56
2022/10/28 07:17:59;;;;;;;5.82;1.65;;;;;;;24.49;45.56;101320.16;5016034;28;20033;-50
2022/10/28 07:20:30;;;;;;;7.43;2.10;;;;;;;24.51;45.38;101321.06;5015343;28;20072;-56
2022/10/28 07:23:00;;;;;;;5.25;1.58;;;;;;;24.52;45.25;101321.09;4997890;28;20061;-56
2022/10/28 07:25:30;;;;;;;4.70;1.45;;;;;;;24.49;45.21;101341.16;5015492;28;20033;-56
2022/10/28 07:27:59;;;;;;;4.88;1.60;;;;;;;24.52;45.33;101331.59;4998564;28;20102;-57
2022/10/28 07:30:29;;;;;;;5.32;1.70;;;;;;;24.49;45.25;101328.03;5015298;28;20112;-59
2022/10/28 07:32:59;;;;;;;4.70;1.30;;;;;;;24.60;44.98;101333.44;4998074;28;20022;-58
2022/10/28 07:35:28;;;;;;;5.80;1.63;;;;;;;24.50;45.39;101333.28;5015649;28;20383;-59
2022/10/28 07:37:57;;;;;;;5.82;1.52;;;;;;;24.54;45.33;101343.00;5015729;28;20108;-56
2022/10/28 07:40:26;;;;;;;3.92;1.42;;;;;;;24.64;45.12;101343.13;5015776;28;20105;-58
2022/10/28 07:42:55;;;;;;;4.53;1.30;;;;;;;24.48;45.27;101335.00;4997868;28;20034;-58
2022/10/28 07:45:23;;;;;;;4.50;1.50;;;;;;;24.51;45.20;101342.03;5015617;28;20428;-57
2022/10/28 07:47:52;;;;;;;5.18;1.67;;;;;;;24.51;45.01;101344.66;5015172;28;20029;-57
2022/10/28 07:50:21;;;;;;;6.57;1.70;;;;;;;24.50;45.38;101350.75;5015280;28;20037;-59
2022/10/28 07:52:49;;;;;;;6.65;1.67;;;;;;;24.50;45.04;101353.38;5014760;28;20391;-56
2022/10/28 07:55:20;;;;;;;6.97;1.77;;;;;;;24.57;44.88;101371.88;5015124;28;20022;-59
2022/10/28 07:57:49;;;;;;;7.38;1.77;;;;;;;24.60;44.94;101381.53;4997512;28;20492;-58
2022/10/28 08:00:18;;;;;;;3.72;1.50;;;;;;;24.62;45.21;101384.19;4981452;28;20030;-59
2022/10/28 08:02:46;;;;;;;4.95;1.60;;;;;;;24.62;44.92;101392.06;5014782;28;20030;-57
2022/10/28 08:05:15;;;;;;;4.05;1.30;;;;;;;24.58;44.88;101399.88;5014399;28;20091;-59
2022/10/28 08:07:45;;;;;;;7.30;2.30;;;;;;;24.64;45.16;101406.97;5014873;28;20026;-54
2022/10/28 08:10:14;;;;;;;4.18;1.38;;;;;;;24.69;44.57;101413.16;5014917;28;20030;-58
2022/10/28 08:12:42;;;;;;;5.22;1.70;;;;;;;24.62;45.25;101421.81;5014541;28;20026;-59
2022/10/28 08:15:11;;;;;;;6.47;1.85;;;;;;;24.66;44.91;101417.50;5014779;28;20026;-59
2022/10/28 08:17:39;;;;;;;4.90;1.20;;;;;;;24.62;45.07;101419.19;5014592;28;20026;-56
2022/10/28 08:20:08;;;;;;;4.03;1.33;;;;;;;24.68;44.75;101440.25;5014597;28;20108;-60
2022/10/28 08:22:36;;;;;;;5.03;1.45;;;;;;;24.67;44.79;101450.75;5014562;28;20029;-60
2022/10/28 08:25:04;;;;;;;6.88;1.42;;;;;;;24.64;45.00;101450.69;5014366;28;20030;-60
2022/10/28 08:27:32;;;;;;;4.68;1.60;;;;;;;24.65;44.95;101450.72;5014390;28;20105;-60
2022/10/28 08:30:01;;;;;;;3.88;1.05;;;;;;;24.64;45.08;101458.53;5014731;28;20030;-60
2022/10/28 08:32:29;;;;;;;6.07;1.88;;;;;;;24.64;44.81;101459.44;5014298;28;20040;-58
2022/10/28 08:34:58;;;;;;;4.82;1.25;;;;;;;24.72;44.76;101470.13;5013996;28;20064;-57
2022/10/28 08:37:26;;;;;;;7.47;1.67;;;;;;;24.60;44.94;101460.25;5014389;28;20033;-57
2022/10/28 08:39:55;;;;;;;3.95;1.30;;;;;;;24.58;44.94;101469.81;5014151;28;20117;-57
2022/10/28 08:42:50;;;;;;;4.70;1.27;;;;;;;24.65;45.06;101473.44;5014149;28;20109;-58
2022/10/28 08:45:40;;;;;;;4.40;1.10;;;;;;;24.61;44.97;101475.13;4996736;28;20060;-58
2022/10/28 08:48:15;;;;;;;5.22;1.30;;;;;;;24.58;45.08;101486.44;4988285;28;20112;-58
2022/10/28 08:50:55;;;;;;;4.47;1.10;;;;;;;24.65;44.87;101489.19;5014570;28;20038;-57
2022/10/28 08:53:49;;;;;;;6.40;2.10;;;;;;;24.63;44.82;101489.16;4996923;28;20049;-57
2022/10/28 08:56:25;;;;;;;5.53;1.30;;;;;;;24.62;44.92;101484.75;5007159;28;20069;-57
2022/10/28 08:58:57;;;;;;;3.63;1.17;;;;;;;24.69;45.01;101488.38;4996906;28;20382;-58
2022/10/28 09:01:52;;;;;;;5.50;1.63;;;;;;;24.75;44.55;101487.63;4996997;28;20022;-55
2022/10/28 09:04:40;;;;;;;5.05;1.60;;;;;;;24.71;45.06;101487.56;5013925;28;20030;-56
2022/10/28 09:07:25;;;;;;;4.05;1.20;;;;;;;24.70;44.83;101506.78;4992865;28;20042;-53
2022/10/28 09:09:54;;;;;;;3.45;1.27;;;;;;;24.76;44.90;101499.91;4994065;28;20076;-56
2022/10/28 09:12:42;;;;;;;3.92;1.30;;;;;;;24.71;45.09;101490.19;4994208;28;20038;-57
2022/10/28 09:15:40;;;;;;;4.03;1.00;;;;;;;24.75;45.00;101492.88;4987625;28;20042;-57
2022/10/28 09:18:13;;;;;;;4.25;1.58;;;;;;;24.78;44.74;101495.56;4992767;28;20037;-55
2022/10/28 09:20:51;;;;;;;4.47;1.52;;;;;;;24.75;44.72;101503.38;4994289;28;20442;-57
2022/10/28 09:23:32;;;;;;;3.35;1.30;;;;;;;24.75;45.00;101519.13;4992628;28;20094;-56
2022/10/28 09:26:19;;;;;;;3.03;1.10;;;;;;;24.71;45.21;101529.56;4992857;28;20034;-56
2022/10/28 09:29:11;;;;;;;4.40;1.05;;;;;;;24.75;44.84;101529.63;4993663;28;20026;-57
2022/10/28 09:31:42;;;;;;;2.30;1.00;;;;;;;24.70;45.13;101519.91;4986398;28;20426;-55
2022/10/28 09:34:14;;;;;;;4.22;1.38;;;;;;;24.75;45.13;101532.25;4992812;28;20081;-56
2022/10/28 09:36:48;;;;;;;2.55;1.00;;;;;;;24.75;45.04;101522.63;4993999;28;20061;-53
2022/10/28 09:39:21;;;;;;;5.50;1.50;;;;;;;24.76;45.11;101528.75;4993935;28;20035;-57
2022/10/28 09:41:50;;;;;;;2.42;1.13;;;;;;;24.80;45.11;101536.72;4992000;28;20041;-56
2022/10/28 09:44:25;;;;;;;3.10;0.77;;;;;;;24.78;45.06;101542.81;4993199;28;20072;-56
2022/10/28 09:46:56;;;;;;;5.70;1.75;;;;;;;24.77;45.13;101535.78;4992316;28;20033;-57
2022/10/28 09:49:28;;;;;;;3.63;0.90;;;;;;;24.73;45.10;101535.72;4992340;28;20037;-57
2022/10/28 09:52:09;;;;;;;4.20;1.05;;;;;;;24.81;44.90;101550.75;4993373;28;20069;-57
2022/10/28 09:54:42;;;;;;;4.35;1.20;;;;;;;24.79;45.12;101553.31;4992477;28;20060;-56
2022/10/28 09:57:11;;;;;;;2.97;1.02;;;;;;;24.82;44.83;101555.13;4992318;28;20033;-57
2022/10/28 09:59:39;;;;;;;3.10;1.00;;;;;;;24.78;44.80;101564.66;4993551;28;20027;-57
2022/10/28 10:02:30;;;;;;;4.00;1.20;;;;;;;24.77;44.98;101572.50;4992104;28;20033;-57
2022/10/28 10:05:00;;;;;;;3.05;0.90;;;;;;;24.77;44.98;101569.91;4993027;28;20058;-57
2022/10/28 10:07:32;;;;;;;3.58;1.23;;;;;;;24.77;45.21;101572.50;4992020;28;20050;-56
2022/10/28 10:10:04;;;;;;;2.83;1.17;;;;;;;24.72;45.03;101575.06;4992382;28;20114;-57
2022/10/28 10:12:33;;;;;;;4.63;1.33;;;;;;;24.78;44.79;101579.53;4992005;28;20479;-58
2022/10/28 10:15:06;;;;;;;3.40;1.17;;;;;;;24.82;44.93;101584.00;4992393;28;20088;-57
2022/10/28 10:17:45;;;;;;;3.65;1.02;;;;;;;24.78;44.84;101572.53;4992047;28;20042;-57
2022/10/28 10:20:17;;;;;;;5.07;1.30;;;;;;;24.77;45.02;101552.41;4991999;28;20384;-56
2022/10/28 10:22:47;;;;;;;6.95;1.55;;;;;;;24.80;45.06;101557.72;4992309;28;20419;-51
2022/10/28 10:25:19;;;;;;;2.97;0.85;;;;;;;24.78;45.14;101569.91;4993262;28;20037;-58
2022/10/28 10:27:57;;;;;;;4.00;1.17;;;;;;;24.76;45.09;101569.00;4992893;28;20030;-57
2022/10/28 10:30:38;;;;;;;4.65;1.23;;;;;;;24.85;44.83;101568.28;4993358;28;20030;-57
2022/10/28 10:33:07;;;;;;;2.90;0.95;;;;;;;24.86;45.00;101567.44;4992119;28;20023;-58
2022/10/28 10:35:37;;;;;;;3.00;0.90;;;;;;;24.80;45.34;101575.22;4993456;28;20050;-57
2022/10/28 10:38:06;;;;;;;2.55;1.00;;;;;;;24.80;44.95;101578.69;4991805;28;20384;-57
2022/10/28 10:40:51;;;;;;;3.95;0.98;;;;;;;24.74;45.31;101575.94;4993373;28;20030;-58
2022/10/28 10:43:21;;;;;;;4.17;1.00;;;;;;;24.80;45.10;101583.06;4995596;28;20034;-57
2022/10/28 10:46:13;;;;;;;2.67;1.00;;;;;;;24.79;44.89;101589.19;4996936;28;20355;-57
2022/10/28 10:48:43;;;;;;;3.92;1.00;;;;;;;24.78;45.27;101583.03;4996218;28;20022;-57
2022/10/28 10:51:30;;;;;;;3.00;1.00;;;;;;;24.75;44.97;101588.22;4997161;28;20033;-58
2022/10/28 10:53:59;;;;;;;2.47;0.93;;;;;;;24.81;45.34;101587.47;4996954;28;20071;-58
2022/10/28 10:56:30;;;;;;;2.60;0.60;;;;;;;24.82;44.92;101595.38;4996504;28;20035;-57
2022/10/28 10:59:01;;;;;;;4.15;1.05;;;;;;;24.82;44.92;101611.09;4996814;28;20546;-57
2022/10/28 11:01:35;;;;;;;3.72;0.95;;;;;;;24.75;44.99;101614.44;4995734;28;20060;-56
2022/10/28 11:04:07;;;;;;;2.53;0.93;;;;;;;24.79;44.88;101616.28;4995318;28;20030;-55
2022/10/28 11:06:42;;;;;;;2.10;0.90;;;;;;;24.80;45.25;101610.19;5008738;28;20054;-58
2022/10/28 11:09:31;;;;;;;2.13;0.65;;;;;;;24.76;45.35;101613.59;5016126;28;20378;-56
2022/10/28 11:12:16;;;;;;;4.10;1.08;;;;;;;24.79;45.06;101604.91;5010578;28;20130;-56
2022/10/28 11:15:14;;;;;;;4.63;1.00;;;;;;;24.78;45.23;101604.03;5015938;28;20109;-55
2022/10/28 11:17:56;;;;;;;2.38;0.88;;;;;;;24.80;45.33;101601.44;5007522;28;20117;-55
2022/10/28 11:20:30;;;;;;;2.55;0.73;;;;;;;24.83;45.03;101598.84;5015878;28;20030;-57
2022/10/28 11:23:06;;;;;;;3.58;1.08;;;;;;;24.77;45.34;101585.63;5015913;28;20577;-57
2022/10/28 11:25:36;;;;;;;2.97;0.88;;;;;;;24.80;45.26;101599.69;5015242;28;20037;-57
2022/10/28 11:28:27;;;;;;;2.55;0.98;;;;;;;24.78;45.44;101597.91;4998052;28;20478;-56
2022/10/28 11:31:32;;;;;;;2.90;0.90;;;;;;;24.79;45.43;101591.81;5015091;28;20026;-57
2022/10/28 11:34:20;;;;;;;5.03;1.33;;;;;;;24.79;45.32;101591.81;5015609;28;20033;-56
2022/10/28 11:37:26;;;;;;;2.33;0.70;;;;;;;24.79;45.32;101592.66;5005015;28;20038;-55
2022/10/28 11:40:30;;;;;;;2.95;0.90;;;;;;;24.77;45.44;101591.75;4998185;28;20070;-57
2022/10/28 11:43:02;;;;;;;4.28;0.98;;;;;;;24.78;45.27;101585.66;5015091;28;20042;-56
2022/10/28 11:45:37;;;;;;;4.30;1.20;;;;;;;24.76;45.51;101586.50;5014894;28;20053;-57
2022/10/28 11:48:25;;;;;;;2.92;0.70;;;;;;;24.81;45.38;101590.09;4997797;28;20026;-57
2022/10/28 11:50:58;;;;;;;3.85;0.68;;;;;;;24.81;45.28;101595.34;5004177;28;20085;-57
2022/10/28 11:53:49;;;;;;;3.58;0.80;;;;;;;24.78;45.22;101598.78;5014361;28;20170;-55
2022/10/28 11:56:39;;;;;;;2.53;0.60;;;;;;;24.79;45.56;101604.91;4990484;28;20064;-56